createdAt,value
2018-03-29T00:01:13.247Z,20.27
2018-03-29T00:03:41.522Z,20.40
2018-03-29T00:06:10.006Z,18.57
2018-03-29T00:08:38.836Z,18.73
2018-03-29T00:11:08.806Z,18.50
2018-03-29T00:13:38.829Z,21.33
2018-03-29T00:16:08.398Z,22.00
2018-03-29T00:18:38.886Z,26.77
2018-03-29T00:21:10.858Z,27.40
2018-03-29T00:23:40.820Z,30.00
2018-03-29T00:26:11.375Z,30.40
2018-03-29T00:28:56.946Z,31.50
2018-03-29T00:31:27.902Z,31.03
2018-03-29T00:34:11.641Z,30.33
2018-03-29T00:36:41.766Z,30.73
2018-03-29T00:39:11.945Z,32.70
2018-03-29T00:41:42.581Z,30.77
2018-03-29T00:44:12.626Z,31.67
2018-03-29T00:46:42.433Z,30.43
2018-03-29T00:49:12.429Z,33.77
2018-03-29T00:51:42.885Z,34.10
2018-03-29T00:54:13.814Z,33.57
2018-03-29T00:56:42.657Z,32.03
2018-03-29T00:59:12.490Z,35.70
2018-03-29T01:01:42.979Z,37.03
2018-03-29T01:04:13.977Z,36.30
2018-03-29T01:06:42.906Z,38.53
2018-03-29T01:09:13.689Z,34.00
2018-03-29T01:11:47.048Z,33.73
2018-03-29T01:14:14.546Z,32.03
2018-03-29T01:16:43.250Z,36.10
2018-03-29T01:19:13.710Z,40.10
2018-03-29T01:21:43.166Z,35.03
2018-03-29T01:24:22.709Z,40.10
2018-03-29T01:26:53.798Z,39.73
2018-03-29T01:29:24.554Z,36.87
2018-03-29T01:31:54.706Z,39.23
2018-03-29T01:34:24.749Z,40.00
2018-03-29T01:36:55.114Z,38.53
2018-03-29T01:39:24.742Z,35.77
2018-03-29T01:41:55.749Z,35.27
2018-03-29T01:44:26.715Z,31.70
2018-03-29T01:46:55.159Z,35.63
2018-03-29T01:49:24.105Z,34.80
2018-03-29T01:51:54.593Z,31.50
2018-03-29T01:54:27.766Z,33.50
2018-03-29T01:57:03.798Z,35.17
2018-03-29T01:59:31.293Z,32.20
2018-03-29T02:01:58.833Z,37.70
2018-03-29T02:04:27.100Z,33.90
2018-03-29T02:06:55.411Z,34.30
2018-03-29T02:09:24.950Z,34.97
2018-03-29T02:11:53.909Z,38.90
2018-03-29T02:14:24.918Z,36.23
2018-03-29T02:16:56.267Z,33.97
2018-03-29T02:19:25.246Z,31.60
2018-03-29T02:21:54.966Z,32.43
2018-03-29T02:24:25.225Z,33.93
2018-03-29T02:26:54.868Z,31.33
2018-03-29T02:29:37.923Z,34.33
2018-03-29T02:32:06.722Z,31.93
2018-03-29T02:34:34.522Z,31.90
2018-03-29T02:37:02.062Z,31.23
2018-03-29T02:39:30.329Z,33.83
2018-03-29T02:41:57.920Z,31.00
2018-03-29T02:44:25.715Z,33.10
2018-03-29T02:46:55.497Z,29.53
2018-03-29T02:49:25.538Z,28.63
2018-03-29T02:51:55.341Z,29.80
2018-03-29T02:54:25.470Z,30.10
2018-03-29T02:56:56.323Z,27.93
2018-03-29T02:59:25.523Z,33.23
2018-03-29T03:01:55.478Z,27.83
2018-03-29T03:04:26.346Z,30.93
2018-03-29T03:06:56.318Z,28.40
2018-03-29T03:09:25.818Z,29.17
2018-03-29T03:11:56.414Z,23.20
2018-03-29T03:14:29.566Z,31.43
2018-03-29T03:16:57.973Z,26.53
2018-03-29T03:19:25.865Z,26.63
2018-03-29T03:21:56.545Z,26.53
2018-03-29T03:24:25.625Z,29.07
2018-03-29T03:26:56.028Z,28.10
2018-03-29T03:29:25.767Z,28.20
2018-03-29T03:31:55.773Z,31.53
2018-03-29T03:34:25.807Z,31.73
2018-03-29T03:36:55.481Z,28.57
2018-03-29T03:39:25.728Z,31.50
2018-03-29T03:42:00.813Z,26.87
2018-03-29T03:44:28.424Z,26.90
2018-03-29T03:46:57.127Z,28.53
2018-03-29T03:49:26.069Z,30.50
2018-03-29T03:51:56.626Z,29.03
2018-03-29T03:54:31.476Z,35.20
2018-03-29T03:56:58.978Z,28.53
2018-03-29T03:59:27.101Z,27.50
2018-03-29T04:01:58.886Z,29.30
2018-03-29T04:04:27.152Z,24.27
2018-03-29T04:06:56.933Z,27.37
2018-03-29T04:09:31.996Z,32.13
2018-03-29T04:11:59.489Z,28.63
2018-03-29T04:14:32.958Z,26.20
2018-03-29T04:17:00.461Z,28.90
2018-03-29T04:19:27.973Z,30.03
2018-03-29T04:21:56.814Z,27.97
2018-03-29T04:24:35.751Z,24.60
2018-03-29T04:27:03.262Z,26.60
2018-03-29T04:29:30.866Z,33.97
2018-03-29T04:31:58.364Z,27.17
2018-03-29T04:34:35.018Z,26.30
2018-03-29T04:37:02.532Z,26.67
2018-03-29T04:39:30.090Z,25.97
2018-03-29T04:41:58.361Z,27.57
2018-03-29T04:44:28.117Z,29.80
2018-03-29T04:47:06.496Z,28.30
2018-03-29T04:49:56.014Z,32.40
2018-03-29T04:52:27.377Z,30.63
2018-03-29T04:54:57.620Z,28.13
2018-03-29T04:57:29.042Z,28.87
2018-03-29T05:00:03.910Z,33.57
2018-03-29T05:02:31.414Z,34.97
2018-03-29T05:04:58.929Z,39.80
2018-03-29T05:07:27.381Z,32.90
2018-03-29T05:09:56.625Z,33.03
2018-03-29T05:12:27.598Z,31.40
2018-03-29T05:15:04.444Z,34.57
2018-03-29T05:17:31.948Z,33.43
2018-03-29T05:20:00.234Z,38.33
2018-03-29T05:22:29.549Z,37.50
2018-03-29T05:24:57.841Z,39.60
2018-03-29T05:27:26.353Z,36.97
2018-03-29T05:29:55.346Z,44.10
2018-03-29T05:32:25.739Z,38.67
2018-03-29T05:34:54.602Z,37.80
2018-03-29T05:37:25.169Z,39.70
2018-03-29T05:39:54.349Z,39.00
2018-03-29T05:42:26.173Z,35.77
2018-03-29T05:44:56.513Z,41.43
2018-03-29T05:47:26.185Z,46.27
2018-03-29T05:49:55.739Z,37.67
2018-03-29T05:52:26.517Z,43.10
2018-03-29T05:54:56.582Z,42.30
2018-03-29T05:57:25.806Z,43.87
2018-03-29T05:59:56.563Z,44.00
2018-03-29T06:02:26.702Z,45.63
2018-03-29T06:04:55.698Z,43.47
2018-03-29T06:07:28.215Z,44.43
2018-03-29T06:09:56.762Z,44.80
2018-03-29T06:12:25.581Z,44.50
2018-03-29T06:15:05.271Z,51.43
2018-03-29T06:17:32.778Z,48.70
2018-03-29T06:20:00.304Z,50.17
2018-03-29T06:22:28.586Z,44.40
2018-03-29T06:24:56.882Z,49.17
2018-03-29T06:27:25.137Z,50.70
2018-03-29T06:29:53.726Z,55.43
2018-03-29T06:32:22.870Z,50.20
2018-03-29T06:34:53.432Z,44.40
2018-03-29T06:37:21.703Z,48.20
2018-03-29T06:39:49.868Z,47.63
2018-03-29T06:42:19.853Z,44.67
2018-03-29T06:44:47.837Z,48.03
2018-03-29T06:47:20.019Z,44.30
2018-03-29T06:49:49.932Z,43.27
2018-03-29T06:52:20.685Z,37.50
2018-03-29T06:54:51.129Z,41.60
2018-03-29T06:57:19.518Z,39.63
2018-03-29T06:59:47.881Z,40.70
2018-03-29T07:02:18.310Z,42.43
2018-03-29T07:04:50.270Z,36.77
2018-03-29T07:07:20.204Z,39.27
2018-03-29T07:10:00.562Z,40.37
2018-03-29T07:12:28.086Z,36.43
2018-03-29T07:14:57.782Z,41.13
2018-03-29T07:17:36.875Z,35.30
2018-03-29T07:20:07.597Z,39.53
2018-03-29T07:22:47.103Z,35.63
2018-03-29T07:25:14.601Z,32.23
2018-03-29T07:27:43.097Z,34.90
2018-03-29T07:30:11.794Z,35.47
2018-03-29T07:32:41.878Z,32.23
2018-03-29T07:35:12.797Z,31.10
2018-03-29T07:37:43.134Z,30.70
2018-03-29T07:40:14.422Z,39.07
2018-03-29T07:42:43.914Z,29.40
2018-03-29T07:45:14.258Z,28.60
2018-03-29T07:47:43.208Z,27.30
2018-03-29T07:50:14.156Z,25.30
2018-03-29T07:52:44.164Z,24.07
2018-03-29T07:55:14.182Z,24.07
2018-03-29T07:57:43.385Z,29.83
2018-03-29T08:00:13.873Z,31.50
2018-03-29T08:02:44.211Z,33.37
2018-03-29T08:05:16.909Z,37.03
2018-03-29T08:07:44.655Z,27.60
2018-03-29T08:10:20.213Z,30.00
2018-03-29T08:12:47.744Z,28.87
2018-03-29T08:15:15.245Z,33.60
2018-03-29T08:17:49.317Z,29.83
2018-03-29T08:20:17.657Z,27.53
2018-03-29T08:22:45.189Z,31.90
2018-03-29T08:25:14.665Z,31.63
2018-03-29T08:27:51.362Z,28.10
2018-03-29T08:30:18.858Z,25.50
2018-03-29T08:32:47.157Z,29.30
2018-03-29T08:35:14.693Z,26.90
2018-03-29T08:37:44.696Z,23.97
2018-03-29T08:40:14.404Z,28.33
2018-03-29T08:42:44.605Z,28.00
2018-03-29T08:45:16.595Z,29.87
2018-03-29T08:47:50.139Z,26.90
2018-03-29T08:50:18.417Z,30.90
2018-03-29T08:52:45.937Z,28.63
2018-03-29T08:55:16.449Z,26.50
2018-03-29T08:57:43.969Z,29.43
2018-03-29T09:00:13.462Z,26.77
2018-03-29T09:02:43.630Z,23.17
2018-03-29T09:05:14.618Z,24.20
2018-03-29T09:07:44.561Z,24.70
2018-03-29T09:10:14.330Z,19.30
2018-03-29T09:12:49.521Z,19.73
2018-03-29T09:15:17.021Z,19.53
2018-03-29T09:17:44.721Z,18.97
2018-03-29T09:20:14.686Z,19.00
2018-03-29T09:22:50.541Z,20.97
2018-03-29T09:25:18.042Z,19.60
2018-03-29T09:27:49.785Z,14.83
2018-03-29T09:30:17.285Z,18.57
2018-03-29T09:32:44.799Z,20.90
2018-03-29T09:35:13.922Z,18.70
2018-03-29T09:37:43.748Z,17.80
2018-03-29T09:40:13.914Z,17.00
2018-03-29T09:42:47.905Z,16.50
2018-03-29T09:45:16.178Z,18.40
2018-03-29T09:47:44.250Z,15.37
2018-03-29T09:50:16.789Z,15.07
2018-03-29T09:52:45.950Z,14.97
2018-03-29T09:55:13.488Z,12.53
2018-03-29T09:57:44.324Z,12.60
2018-03-29T10:00:26.560Z,15.53
2018-03-29T10:02:57.314Z,17.33
2018-03-29T10:05:41.456Z,12.37
2018-03-29T10:08:20.934Z,12.63
2018-03-29T10:10:49.240Z,11.70
2018-03-29T10:13:16.838Z,14.27
2018-03-29T10:15:44.305Z,12.57
2018-03-29T10:18:14.086Z,13.33
2018-03-29T10:20:43.770Z,16.37
2018-03-29T10:23:13.959Z,16.30
2018-03-29T10:25:44.011Z,19.27
2018-03-29T10:28:13.994Z,13.93
2018-03-29T10:30:43.961Z,16.03
2018-03-29T10:33:14.193Z,17.87
2018-03-29T10:35:44.370Z,16.67
2018-03-29T10:38:14.112Z,17.27
2018-03-29T10:40:44.093Z,17.37
2018-03-29T10:43:14.207Z,16.83
2018-03-29T10:45:44.153Z,15.60
2018-03-29T10:48:14.162Z,12.30
2018-03-29T10:50:44.002Z,11.57
2018-03-29T10:53:12.158Z,9.57
2018-03-29T10:55:42.712Z,9.30
2018-03-29T10:58:12.810Z,8.27
2018-03-29T11:00:44.006Z,11.17
2018-03-29T11:03:14.387Z,11.10
2018-03-29T11:05:57.015Z,13.60
2018-03-29T11:08:24.754Z,10.40
2018-03-29T11:10:53.556Z,10.47
2018-03-29T11:13:21.824Z,10.40
2018-03-29T11:15:50.155Z,9.10
2018-03-29T11:18:17.648Z,13.63
2018-03-29T11:20:45.205Z,9.87
2018-03-29T11:23:14.127Z,8.10
2018-03-29T11:25:44.272Z,14.37
2018-03-29T11:28:14.453Z,9.93
2018-03-29T11:30:44.247Z,8.77
2018-03-29T11:33:13.973Z,6.90
2018-03-29T11:35:44.063Z,6.33
2018-03-29T11:38:14.334Z,8.53
2018-03-29T11:40:44.157Z,6.93
2018-03-29T11:43:14.094Z,6.80
2018-03-29T11:45:43.986Z,5.27
2018-03-29T11:48:14.302Z,7.03
2018-03-29T11:50:44.188Z,3.23
2018-03-29T11:53:14.517Z,3.40
2018-03-29T11:55:44.334Z,5.00
2018-03-29T11:58:14.310Z,4.40
2018-03-29T12:00:44.386Z,3.70
2018-03-29T12:03:14.424Z,5.90
2018-03-29T12:05:44.381Z,5.53
2018-03-29T12:08:14.471Z,5.17
2018-03-29T12:10:52.414Z,3.50
2018-03-29T12:13:21.674Z,6.60
2018-03-29T12:15:49.198Z,6.50
2018-03-29T12:18:17.496Z,2.43
2018-03-29T12:20:45.784Z,3.13
2018-03-29T12:23:14.469Z,4.30
2018-03-29T12:25:44.658Z,3.13
2018-03-29T12:28:24.473Z,4.00
2018-03-29T12:30:51.978Z,4.10
2018-03-29T12:33:19.548Z,5.83
2018-03-29T12:35:47.069Z,11.10
2018-03-29T12:38:20.386Z,3.20
2018-03-29T12:40:47.915Z,5.80
2018-03-29T12:43:15.407Z,4.53
2018-03-29T12:45:44.840Z,3.00
2018-03-29T12:48:19.525Z,3.43
2018-03-29T12:50:47.839Z,3.07
2018-03-29T12:53:15.338Z,2.50
2018-03-29T12:55:44.902Z,2.37
2018-03-29T12:58:14.514Z,2.10
2018-03-29T13:00:44.576Z,6.00
2018-03-29T13:03:14.646Z,2.90
2018-03-29T13:05:44.737Z,2.27
2018-03-29T13:08:14.621Z,2.60
2018-03-29T13:10:44.347Z,3.03
2018-03-29T13:13:14.614Z,3.40
2018-03-29T13:15:44.645Z,2.97
2018-03-29T13:18:14.677Z,2.90
2018-03-29T13:20:49.286Z,3.63
2018-03-29T13:23:18.533Z,4.03
2018-03-29T13:25:46.822Z,5.50
2018-03-29T13:28:20.749Z,4.67
2018-03-29T13:30:49.016Z,4.97
2018-03-29T13:33:16.531Z,6.93
2018-03-29T13:35:46.916Z,7.73
2018-03-29T13:38:14.964Z,6.07
2018-03-29T13:40:44.790Z,5.90
2018-03-29T13:43:14.942Z,4.20
2018-03-29T13:45:44.769Z,4.87
2018-03-29T13:48:17.443Z,4.43
2018-03-29T13:50:44.989Z,3.97
2018-03-29T13:53:15.060Z,6.23
2018-03-29T13:55:43.746Z,3.73
2018-03-29T13:58:13.805Z,4.80
2018-03-29T14:00:44.015Z,6.00
2018-03-29T14:03:17.523Z,5.13
2018-03-29T14:05:45.794Z,10.47
2018-03-29T14:08:14.133Z,6.50
2018-03-29T14:10:46.765Z,11.27
2018-03-29T14:13:14.273Z,6.53
2018-03-29T14:15:43.786Z,7.13
2018-03-29T14:18:14.057Z,5.80
2018-03-29T14:20:43.978Z,6.63
2018-03-29T14:23:14.294Z,9.10
2018-03-29T14:25:43.989Z,6.10
2018-03-29T14:28:14.052Z,8.17
2018-03-29T14:30:44.240Z,9.60
2018-03-29T14:33:14.221Z,6.23
2018-03-29T14:35:46.981Z,12.57
2018-03-29T14:38:15.238Z,7.10
2018-03-29T14:40:48.118Z,10.80
2018-03-29T14:43:15.643Z,8.13
2018-03-29T14:45:43.150Z,7.30
2018-03-29T14:48:10.764Z,7.93
2018-03-29T14:50:38.254Z,10.10
2018-03-29T14:53:05.797Z,11.00
2018-03-29T14:55:33.432Z,9.60
2018-03-29T14:58:01.019Z,6.30
2018-03-29T15:00:28.532Z,5.63
2018-03-29T15:02:56.090Z,8.17
2018-03-29T15:05:23.909Z,7.90
2018-03-29T15:07:51.495Z,7.13
2018-03-29T15:10:19.248Z,6.33
2018-03-29T15:12:47.129Z,7.60
2018-03-29T15:15:15.007Z,7.90
2018-03-29T15:17:42.580Z,6.77
2018-03-29T15:20:10.076Z,3.30
2018-03-29T15:22:37.622Z,5.97
2018-03-29T15:25:05.112Z,6.20
2018-03-29T15:27:32.649Z,5.23
2018-03-29T15:30:12.708Z,3.97
2018-03-29T15:32:41.123Z,4.00
2018-03-29T15:35:09.282Z,6.23
2018-03-29T15:37:39.082Z,4.67
2018-03-29T15:40:09.499Z,4.63
2018-03-29T15:42:48.477Z,4.60
2018-03-29T15:45:16.164Z,4.60
2018-03-29T15:47:44.430Z,4.20
2018-03-29T15:50:12.136Z,8.70
2018-03-29T15:52:39.654Z,3.90
2018-03-29T15:55:08.374Z,3.57
2018-03-29T15:57:37.470Z,3.73
2018-03-29T16:00:07.169Z,5.20
2018-03-29T16:02:45.674Z,4.23
2018-03-29T16:05:13.951Z,5.60
2018-03-29T16:07:43.498Z,6.80
2018-03-29T16:10:12.180Z,7.20
2018-03-29T16:12:41.676Z,4.23
2018-03-29T16:15:11.186Z,4.77
2018-03-29T16:17:40.257Z,5.77
2018-03-29T16:20:09.911Z,4.57
2018-03-29T16:22:38.025Z,2.90
2018-03-29T16:25:07.769Z,7.03
2018-03-29T16:27:38.366Z,4.07
2018-03-29T16:30:09.094Z,4.33
2018-03-29T16:32:39.231Z,4.93
2018-03-29T16:35:08.272Z,4.83
2018-03-29T16:37:38.121Z,7.10
2018-03-29T16:40:09.675Z,8.03
2018-03-29T16:42:38.918Z,3.60
2018-03-29T16:45:09.815Z,6.03
2018-03-29T16:47:39.105Z,5.53
2018-03-29T16:50:07.470Z,3.40
2018-03-29T16:52:36.172Z,8.87
2018-03-29T16:55:06.608Z,8.70
2018-03-29T16:57:36.797Z,4.03
2018-03-29T17:00:05.210Z,9.70
2018-03-29T17:02:34.386Z,3.27
2018-03-29T17:05:07.860Z,7.23
2018-03-29T17:07:38.613Z,13.37
2018-03-29T17:10:08.618Z,6.50
2018-03-29T17:12:47.098Z,6.30
2018-03-29T17:15:15.408Z,5.70
2018-03-29T17:17:43.002Z,3.30
2018-03-29T17:20:13.706Z,5.93
2018-03-29T17:22:44.277Z,7.27
2018-03-29T17:25:12.190Z,3.50
2018-03-29T17:27:39.935Z,4.20
2018-03-29T17:30:09.106Z,3.10
2018-03-29T17:32:38.554Z,3.67
2018-03-29T17:35:08.038Z,6.30
2018-03-29T17:37:37.658Z,5.00
2018-03-29T17:40:10.877Z,3.10
2018-03-29T17:42:39.120Z,4.33
2018-03-29T17:45:09.747Z,5.93
2018-03-29T17:47:40.257Z,19.53
2018-03-29T17:50:09.633Z,5.90
2018-03-29T17:52:37.948Z,7.37
2018-03-29T17:55:06.736Z,5.90
2018-03-29T17:57:35.426Z,6.63
2018-03-29T18:00:08.267Z,2.63
2018-03-29T18:02:41.185Z,7.80
2018-03-29T18:05:11.273Z,4.10
2018-03-29T18:07:38.872Z,3.70
2018-03-29T18:10:10.478Z,5.07
2018-03-29T18:12:48.321Z,9.03
2018-03-29T18:15:15.840Z,5.63
2018-03-29T18:17:44.118Z,6.33
2018-03-29T18:20:12.426Z,9.57
2018-03-29T18:22:40.689Z,9.60
2018-03-29T18:25:09.059Z,6.20
2018-03-29T18:27:36.902Z,14.27
2018-03-29T18:30:08.830Z,11.90
2018-03-29T18:32:40.428Z,9.00
2018-03-29T18:35:08.437Z,5.13
2018-03-29T18:37:40.009Z,8.07
2018-03-29T18:40:18.146Z,7.70
2018-03-29T18:42:45.637Z,12.90
2018-03-29T18:45:13.153Z,19.30
2018-03-29T18:47:40.641Z,9.13
2018-03-29T18:50:08.434Z,10.27
2018-03-29T18:52:36.963Z,12.20
2018-03-29T18:55:08.443Z,11.83
2018-03-29T18:57:39.947Z,17.43
2018-03-29T19:00:09.059Z,10.67
2018-03-29T19:02:41.857Z,14.50
2018-03-29T19:05:11.110Z,10.63
2018-03-29T19:07:40.696Z,9.43
2018-03-29T19:10:18.721Z,8.37
2018-03-29T19:12:46.249Z,9.60
2018-03-29T19:15:13.740Z,11.17
2018-03-29T19:17:41.258Z,10.07
2018-03-29T19:20:09.383Z,13.57
2018-03-29T19:22:48.404Z,7.93
2018-03-29T19:25:16.669Z,10.53
2018-03-29T19:27:44.240Z,12.63
2018-03-29T19:30:11.983Z,10.80
2018-03-29T19:32:41.806Z,6.63
2018-03-29T19:35:11.535Z,15.83
2018-03-29T19:37:41.452Z,7.23
2018-03-29T19:40:13.298Z,8.13
2018-03-29T19:42:43.122Z,7.93
2018-03-29T19:45:12.416Z,9.50
2018-03-29T19:47:43.493Z,8.03
2018-03-29T19:50:12.902Z,11.60
2018-03-29T19:52:42.101Z,12.20
2018-03-29T19:55:11.955Z,7.50
2018-03-29T19:57:42.330Z,12.13
2018-03-29T20:00:13.315Z,8.83
2018-03-29T20:02:42.409Z,10.20
2018-03-29T20:05:12.977Z,11.33
2018-03-29T20:07:44.429Z,10.83
2018-03-29T20:10:14.369Z,9.60
2018-03-29T20:12:44.341Z,10.03
2018-03-29T20:15:14.566Z,8.60
2018-03-29T20:17:44.290Z,11.90
2018-03-29T20:20:26.354Z,11.40
2018-03-29T20:22:53.865Z,11.63
2018-03-29T20:25:21.357Z,8.20
2018-03-29T20:27:48.868Z,12.17
2018-03-29T20:30:16.362Z,14.20
2018-03-29T20:32:44.642Z,11.10
2018-03-29T20:35:14.285Z,11.50
2018-03-29T20:37:44.257Z,13.83
2018-03-29T20:40:14.035Z,13.90
2018-03-29T20:42:44.082Z,13.53
2018-03-29T20:45:17.042Z,14.00
2018-03-29T20:47:44.613Z,9.90
2018-03-29T20:50:14.279Z,13.27
2018-03-29T20:52:44.269Z,13.77
2018-03-29T20:55:14.524Z,9.83
2018-03-29T20:57:43.726Z,11.63
2018-03-29T21:00:13.941Z,12.57
2018-03-29T21:02:44.538Z,14.10
2018-03-29T21:05:14.282Z,9.93
2018-03-29T21:07:44.606Z,16.50
2018-03-29T21:10:20.463Z,11.60
2018-03-29T21:12:48.743Z,10.10
2018-03-29T21:15:17.041Z,11.60
2018-03-29T21:17:45.338Z,10.90
2018-03-29T21:20:38.318Z,11.33
2018-03-29T21:23:13.583Z,11.30
2018-03-29T21:25:48.232Z,11.97
2018-03-29T21:28:22.533Z,12.30
2018-03-29T21:30:50.029Z,11.03
2018-03-29T21:33:18.290Z,9.50
2018-03-29T21:35:45.909Z,10.00
2018-03-29T21:38:15.020Z,10.03
2018-03-29T21:40:44.581Z,11.03
2018-03-29T21:43:14.690Z,12.47
2018-03-29T21:45:44.369Z,12.77
2018-03-29T21:48:13.588Z,11.83
2018-03-29T21:50:43.809Z,11.33
2018-03-29T21:53:14.257Z,12.90
2018-03-29T21:55:47.557Z,16.03
2018-03-29T21:58:15.142Z,10.87
2018-03-29T22:00:44.712Z,11.00
2018-03-29T22:03:15.330Z,10.20
2018-03-29T22:05:46.686Z,9.70
2018-03-29T22:08:22.632Z,10.07
2018-03-29T22:10:58.846Z,11.33
2018-03-29T22:13:29.505Z,10.93
2018-03-29T22:16:00.300Z,8.77
2018-03-29T22:18:29.637Z,12.73
2018-03-29T22:21:00.013Z,14.30
2018-03-29T22:23:38.205Z,9.27
2018-03-29T22:26:05.738Z,11.77
2018-03-29T22:28:33.224Z,8.90
2018-03-29T22:31:01.194Z,11.63
2018-03-29T22:33:31.645Z,13.97
2018-03-29T22:36:00.757Z,8.97
2018-03-29T22:38:29.932Z,10.17
2018-03-29T22:41:00.138Z,8.30
2018-03-29T22:43:30.132Z,15.27
2018-03-29T22:45:58.497Z,8.07
2018-03-29T22:48:26.700Z,9.40
2018-03-29T22:50:57.373Z,12.33
2018-03-29T22:53:27.671Z,10.67
2018-03-29T22:55:56.097Z,7.73
2018-03-29T22:58:27.366Z,11.47
2018-03-29T23:00:59.001Z,7.27
2018-03-29T23:03:30.725Z,8.70
2018-03-29T23:06:13.270Z,12.27
2018-03-29T23:08:40.835Z,8.10
2018-03-29T23:11:08.350Z,10.37
2018-03-29T23:13:38.273Z,9.70
2018-03-29T23:16:05.785Z,9.10
2018-03-29T23:18:49.167Z,12.03
2018-03-29T23:21:20.233Z,10.97
2018-03-29T23:23:51.266Z,7.90
2018-03-29T23:26:21.274Z,11.30
2018-03-29T23:29:00.867Z,6.87
2018-03-29T23:31:28.385Z,13.33
2018-03-29T23:33:55.985Z,16.17
2018-03-29T23:36:24.265Z,8.60
2018-03-29T23:38:52.257Z,9.93
2018-03-29T23:41:22.537Z,9.50
2018-03-29T23:43:52.351Z,8.20
2018-03-29T23:46:22.529Z,7.57
2018-03-29T23:48:52.345Z,8.10
2018-03-29T23:51:22.453Z,8.40
2018-03-29T23:53:52.353Z,9.07
2018-03-29T23:56:22.213Z,8.63
2018-03-29T23:58:52.185Z,8.03
